MOL Explorer — 3EKT8 — position and weather

sailwx.info

Track history (hours):
 
Tides and Currents Weather Stations Pressure Air Temp Water Temp Dewpoint Dewpoint Depression Visibility Wind Speed Wind Dir Waves Ship Positions

MOL Explorer

Last reported at 2018-May-25 12:07 UTC. Time now 2018-May-27 08:08 UTC.
Position N 34°40' E 139°30'.

Length 293 m; draft 10.3 m.

Type: Ship (hazmat cat A). MMSI: 372827000.

Date/timePositionNaut miles runAvg speedWind from/ knotsBaromVisibWave heightAir tempDewpointWater temp
2018-May-25 12:07N 34°40' E 139°30'318.3
2018-May-25 11:58N 34°42' E 139°31'817.2
2018-May-25 11:31N 34°49' E 139°36'917.7
2018-May-25 11:00N 34°57' E 139°40'917.4
2018-May-25 10:30N 35°06' E 139°43'714.4
2018-May-25 10:00N 35°12' E 139°46'611.2
2018-May-25 09:30N 35°18' E 139°44'612.8
2018-May-25 09:01N 35°24' E 139°43'813.9
2018-May-25 08:27N 35°29' E 139°50'612.0
2018-May-25 07:57N 35°35' E 139°48'1 0.1
2018-May-24 08:33N 35°36' E 139°47'1 8.7
2018-May-24 08:29N 35°35' E 139°47'8 9.3
2018-May-24 07:35N 35°27' E 139°49'217.9
2018-May-24 07:29N 35°26' E 139°47'612.2
2018-May-24 07:00N 35°24' E 139°40'1 1.0
2018-May-24 06:30N 35°24' E 139°41'0 0.0
2018-May-24 06:00N 35°24' E 139°41'0 0.0
2018-May-24 05:30N 35°24' E 139°41'0 0.0
2018-May-24 04:57N 35°24' E 139°41'0 0.0
2018-May-24 04:27N 35°24' E 139°41'0 0.0
2018-May-24 04:00N 35°24' E 139°41'0 0.0
2018-May-24 03:30N 35°24' E 139°41'0 0.0
2018-May-24 03:00N 35°24' E 139°41'0 0.0
2018-May-24 02:15N 35°24' E 139°41'0 0.0
2018-May-24 02:00N 35°24' E 139°41'0 0.0
2018-May-24 01:30N 35°24' E 139°41'0 0.0
2018-May-24 01:00N 35°24' E 139°41'0 0.0
2018-May-24 00:30N 35°24' E 139°41'0 0.0
2018-May-24 00:00N 35°24' E 139°41'0 0.0
2018-May-23 23:27N 35°24' E 139°41'0 0.0
2018-May-23 22:57N 35°24' E 139°41'0 0.9
2018-May-23 22:30N 35°24' E 139°41'3 5.1
2018-May-23 22:00N 35°21' E 139°42'611.7
2018-May-23 21:30N 35°17' E 139°46'611.7
2018-May-23 21:00N 35°11' E 139°47'4 8.6
2018-May-23 20:30N 35°07' E 139°45'4 8.1
2018-May-23 20:00N 35°03' E 139°44'5 9.6
2018-May-23 19:30N 34°58' E 139°42'4 7.6
2018-May-23 19:00N 34°55' E 139°40'712.5
2018-May-23 18:26N 34°49' E 139°36'229 7.6
2018-May-22 12:19N 33°34' E 135°14'920.6
2018-May-22 11:52N 33°40' E 135°06'720.4
2018-May-22 11:30N 33°45' E 135°00'919.0
2018-May-22 11:00N 33°54' E 134°57'1020.6
2018-May-22 10:30N 34°05' E 134°58'917.7
2018-May-22 10:00N 34°14' E 134°57'714.6
2018-May-22 09:31N 34°21' E 134°60'917.4
2018-May-22 09:00N 34°28' E 135°06'918.1
2018-May-22 08:30N 34°34' E 135°13'510.6
2018-May-22 08:00N 34°39' E 135°15'0 0.4
2018-May-22 07:28N 34°39' E 135°15'0 0.0
2018-May-22 07:00N 34°39' E 135°15'0 0.0
2018-May-22 06:31N 34°39' E 135°15'0 0.0
2018-May-22 06:00N 34°39' E 135°15'0 0.0
2018-May-22 05:30N 34°39' E 135°15'0 0.0
2018-May-22 05:00N 34°39' E 135°15'0 0.0
2018-May-22 04:30N 34°39' E 135°15'0 0.0
2018-May-22 04:01N 34°39' E 135°15'0 0.0
2018-May-22 03:30N 34°39' E 135°15'0 0.0
2018-May-22 03:00N 34°39' E 135°15'0 0.0
2018-May-22 02:30N 34°39' E 135°15'0 0.0
2018-May-22 02:01N 34°39' E 135°15'0 0.0
2018-May-22 01:31N 34°39' E 135°15'0 0.0
2018-May-22 01:01N 34°39' E 135°15'0 0.0
2018-May-22 00:30N 34°39' E 135°15'0 0.0
2018-May-22 00:00N 34°39' E 135°15'0 0.0
2018-May-21 23:30N 34°39' E 135°15'0 0.0
2018-May-21 22:59N 34°39' E 135°15'1 1.6
2018-May-21 22:31N 34°39' E 135°15'5 9.7
2018-May-21 22:00N 34°37' E 135°21'5 9.9
2018-May-21 21:30N 34°38' E 135°27'0 0.0
2018-May-21 07:17N 34°38' E 135°26'0 0.0
2018-May-21 06:53N 34°38' E 135°26'0 0.0
2018-May-21 03:04N 34°38' E 135°26'0 0.6
2018-May-21 02:58N 34°38' E 135°26'3 5.9
2018-May-21 02:30N 34°38' E 135°23'815.8
2018-May-21 02:00N 34°33' E 135°16'917.2
2018-May-21 01:30N 34°27' E 135°08'917.5
2018-May-21 01:00N 34°20' E 135°02'815.7
2018-May-21 00:30N 34°13' E 134°60'611.1
2018-May-21 00:01N 34°07' E 134°59'5 9.5
2018-May-20 23:30N 34°03' E 134°59'5 9.9
2018-May-20 23:00N 33°58' E 134°58'510.1
2018-May-20 22:30N 33°53' E 134°58'4 8.2
2018-May-20 22:00N 33°49' E 134°56'714.0
2018-May-20 21:30N 33°44' E 134°51'814.0
2018-May-20 20:56N 33°37' E 134°45'  
2018-May-18 05:28N 24°28' E 119°13'815.7
2018-May-18 04:56N 24°22' E 119°07'815.1
2018-May-18 04:25N 24°17' E 119°00'615.1
2018-May-18 04:00N 24°13' E 118°55'815.3
2018-May-18 03:30N 24°07' E 118°49'815.3
2018-May-18 03:00N 24°02' E 118°43'816.4
2018-May-18 02:30N 23°57' E 118°37'817.0
2018-May-18 02:00N 23°51' E 118°30'1118.1
2018-May-18 01:23N 23°43' E 118°21'819.3
2018-May-18 00:57N 23°38' E 118°14'919.2
2018-May-18 00:30N 23°32' E 118°07'919.0
2018-May-18 00:01N 23°26' E 117°60'917.1
2018-May-17 23:28N 23°19' E 117°52'1015.9
2018-May-17 22:51N 23°12' E 117°45'20814.5
2018-May-17 08:30N 22°19' E 114°07'  
Track history (hours):
 
Tides and Currents Weather Stations Pressure Air Temp Water Temp Dewpoint Dewpoint Depression Visibility Wind Speed Wind Dir Waves Ship Positions

MOL Explorer

Last reported at 2018-May-25 12:07 UTC. Time now 2018-May-27 08:08 UTC.
Position N 34°40' E 139°30'.

Length 293 m; draft 10.3 m.

Type: Ship (hazmat cat A). MMSI: 372827000.

Date/timePositionNaut miles runAvg speedWind from/ knotsBaromVisibWave heightAir tempDewpointWater temp
2018-May-25 12:07N 34°40' E 139°30'318.3
2018-May-25 11:58N 34°42' E 139°31'817.2
2018-May-25 11:31N 34°49' E 139°36'917.7
2018-May-25 11:00N 34°57' E 139°40'917.4
2018-May-25 10:30N 35°06' E 139°43'714.4
2018-May-25 10:00N 35°12' E 139°46'611.2
2018-May-25 09:30N 35°18' E 139°44'612.8
2018-May-25 09:01N 35°24' E 139°43'813.9
2018-May-25 08:27N 35°29' E 139°50'612.0
2018-May-25 07:57N 35°35' E 139°48'1 0.1
2018-May-24 08:33N 35°36' E 139°47'1 8.7
2018-May-24 08:29N 35°35' E 139°47'8 9.3
2018-May-24 07:35N 35°27' E 139°49'217.9
2018-May-24 07:29N 35°26' E 139°47'612.2
2018-May-24 07:00N 35°24' E 139°40'1 1.0
2018-May-24 06:30N 35°24' E 139°41'0 0.0
2018-May-24 06:00N 35°24' E 139°41'0 0.0
2018-May-24 05:30N 35°24' E 139°41'0 0.0
2018-May-24 04:57N 35°24' E 139°41'0 0.0
2018-May-24 04:27N 35°24' E 139°41'0 0.0
2018-May-24 04:00N 35°24' E 139°41'0 0.0
2018-May-24 03:30N 35°24' E 139°41'0 0.0
2018-May-24 03:00N 35°24' E 139°41'0 0.0
2018-May-24 02:15N 35°24' E 139°41'0 0.0
2018-May-24 02:00N 35°24' E 139°41'0 0.0
2018-May-24 01:30N 35°24' E 139°41'0 0.0
2018-May-24 01:00N 35°24' E 139°41'0 0.0
2018-May-24 00:30N 35°24' E 139°41'0 0.0
2018-May-24 00:00N 35°24' E 139°41'0 0.0
2018-May-23 23:27N 35°24' E 139°41'0 0.0
2018-May-23 22:57N 35°24' E 139°41'0 0.9
2018-May-23 22:30N 35°24' E 139°41'3 5.1
2018-May-23 22:00N 35°21' E 139°42'611.7
2018-May-23 21:30N 35°17' E 139°46'611.7
2018-May-23 21:00N 35°11' E 139°47'4 8.6
2018-May-23 20:30N 35°07' E 139°45'4 8.1
2018-May-23 20:00N 35°03' E 139°44'5 9.6
2018-May-23 19:30N 34°58' E 139°42'4 7.6
2018-May-23 19:00N 34°55' E 139°40'712.5
2018-May-23 18:26N 34°49' E 139°36'229 7.6
2018-May-22 12:19N 33°34' E 135°14'920.6
2018-May-22 11:52N 33°40' E 135°06'720.4
2018-May-22 11:30N 33°45' E 135°00'919.0
2018-May-22 11:00N 33°54' E 134°57'1020.6
2018-May-22 10:30N 34°05' E 134°58'917.7
2018-May-22 10:00N 34°14' E 134°57'714.6
2018-May-22 09:31N 34°21' E 134°60'917.4
2018-May-22 09:00N 34°28' E 135°06'918.1
2018-May-22 08:30N 34°34' E 135°13'510.6
2018-May-22 08:00N 34°39' E 135°15'0 0.4
2018-May-22 07:28N 34°39' E 135°15'0 0.0
2018-May-22 07:00N 34°39' E 135°15'0 0.0
2018-May-22 06:31N 34°39' E 135°15'0 0.0
2018-May-22 06:00N 34°39' E 135°15'0 0.0
2018-May-22 05:30N 34°39' E 135°15'0 0.0
2018-May-22 05:00N 34°39' E 135°15'0 0.0
2018-May-22 04:30N 34°39' E 135°15'0 0.0
2018-May-22 04:01N 34°39' E 135°15'0 0.0
2018-May-22 03:30N 34°39' E 135°15'0 0.0
2018-May-22 03:00N 34°39' E 135°15'0 0.0
2018-May-22 02:30N 34°39' E 135°15'0 0.0
2018-May-22 02:01N 34°39' E 135°15'0 0.0
2018-May-22 01:31N 34°39' E 135°15'0 0.0
2018-May-22 01:01N 34°39' E 135°15'0 0.0
2018-May-22 00:30N 34°39' E 135°15'0 0.0
2018-May-22 00:00N 34°39' E 135°15'0 0.0
2018-May-21 23:30N 34°39' E 135°15'0 0.0
2018-May-21 22:59N 34°39' E 135°15'1 1.6
2018-May-21 22:31N 34°39' E 135°15'5 9.7
2018-May-21 22:00N 34°37' E 135°21'5 9.9
2018-May-21 21:30N 34°38' E 135°27'0 0.0
2018-May-21 07:17N 34°38' E 135°26'0 0.0
2018-May-21 06:53N 34°38' E 135°26'0 0.0
2018-May-21 03:04N 34°38' E 135°26'0 0.6
2018-May-21 02:58N 34°38' E 135°26'3 5.9
2018-May-21 02:30N 34°38' E 135°23'815.8
2018-May-21 02:00N 34°33' E 135°16'917.2
2018-May-21 01:30N 34°27' E 135°08'917.5
2018-May-21 01:00N 34°20' E 135°02'815.7
2018-May-21 00:30N 34°13' E 134°60'611.1
2018-May-21 00:01N 34°07' E 134°59'5 9.5
2018-May-20 23:30N 34°03' E 134°59'5 9.9
2018-May-20 23:00N 33°58' E 134°58'510.1
2018-May-20 22:30N 33°53' E 134°58'4 8.2
2018-May-20 22:00N 33°49' E 134°56'714.0
2018-May-20 21:30N 33°44' E 134°51'814.0
2018-May-20 20:56N 33°37' E 134°45'  
2018-May-18 05:28N 24°28' E 119°13'815.7
2018-May-18 04:56N 24°22' E 119°07'815.1
2018-May-18 04:25N 24°17' E 119°00'615.1
2018-May-18 04:00N 24°13' E 118°55'815.3
2018-May-18 03:30N 24°07' E 118°49'815.3
2018-May-18 03:00N 24°02' E 118°43'816.4
2018-May-18 02:30N 23°57' E 118°37'817.0
2018-May-18 02:00N 23°51' E 118°30'1118.1
2018-May-18 01:23N 23°43' E 118°21'819.3
2018-May-18 00:57N 23°38' E 118°14'919.2
2018-May-18 00:30N 23°32' E 118°07'919.0
2018-May-18 00:01N 23°26' E 117°60'917.1
2018-May-17 23:28N 23°19' E 117°52'1015.9
2018-May-17 22:51N 23°12' E 117°45'20814.5
2018-May-17 08:30N 22°19' E 114°07'  

Dump ship's entire track history